Oakwood, IL (61858)

7:01 PM CDT on September 16, 2014 (GMT -0500)
K9ADL | Change Station
CLOSE
Current Station
Personal Weather Station
Location: Oakwood, IL
Elevation: 725 ft
Nearby Weather Stations

Elev 725 ft 40.17 °N, 87.77 °W | Updated 2 seconds ago

Clear
Clear
61.3 °F
Feels Like 61.3 °F
N
0.0
Wind Variable Wind from East
Gusts 0.0 mph

Today
High -- | Low -- °F
--% Chance of Precip.
Yesterday
High -- | Low -- °F
Precip. -- in
6:32 AM 6:58 PM
Last Quarter, 41% visible
Pressure 30.07 in
Visibility 7.0 miles
Clouds Clear
Dew Point 52 °F
Humidity 72%
Rainfall 0.02 in
Snow Depth Not available.
UV 0 out of 12
Pollen 5.60 out of 12
Air Quality Not available.
Flu Activity Not available.
METAR KDNV 162335Z AUTO 00000KT 7SM CLR 17/10 A3007 RMK AO2 T01650100

More Conditions Fewer Conditions

Pressure 30.07 in
Visibility 7.0 miles
Clouds Clear
Dew Point 52 °F
Humidity 72%
Rainfall 0.02 in
Snow Depth Not available.
UV 0 out of 12
Pollen 5.60 out of 12
Air Quality Not available.
Flu Activity Not available.
METAR KDNV 162335Z AUTO 00000KT 7SM CLR 17/10 A3007 RMK AO2 T01650100

More Conditions Fewer Conditions

10-Day Weather Forecast

Almanac

Astronomy

Sep. 16, 2014 Rise Set
Actual Time 6:32 AM CDT 6:58 PM CDT
Civil Twilight 6:05 AM CDT 7:25 PM CDT
Nautical Twilight 5:33 AM CDT 7:57 PM CDT
Astronomical Twilight 5:00 AM CDT 8:29 PM CDT
Moon No Moon Rise 2:21 PM CDT (9/16)
Length of Visible Light 13h 19m
Length of Day
12h 25m
Tomorrow will be 2m 37s shorter.
Last Quarter, 41% of the Moon is Illuminated
Today
Last Quarter
Sep 24
New
Oct 1
First Quarter
Oct 8
Full
Oct 15
Last Quarter

Today's Extremes

State Highs State Lows

Community

WunderPhotos

Upload Photos

1,753,919 photos uploaded!

Nearby

Snow Depth

Station Depth Elevation
No new snow has been reported.

Earthquake Activity

City Distance Mag. Time & Date
No recent earthquake activity has been reported nearby.
Minimum magnitude displayed is 2.5.

Coastal Water Temperatures

Place Temperature
No Stations Reporting

Nearby Weather Stations